Dundas, Virginia
Current Conditions -  °F | °C
As of 4:35 AM on Sunday 23 Nov 2014 (Local Time) from KW31 Reporting Station
Clear Clear  
Wind Chill: 34°   Ceiling: Unl
Heat Index: 34°   Visibility: 10mi
Dew Point: 26°   Wind: 0mph
Humidity: 72%   Direction: NA
Pressure: 30.26"   Gusts: NA
Location:  36.92°N, 78.02°W
Report Text: KW31 230935Z AUTO 00000KT 10SM CLR 01/M03 A3026 RMK AO1 T00111035
Loading
Personal Weather Stations






























Interactive Weather Map New forecast layout! Learn more

10-Day Weather Forecast

Advertisements
Track Severe Weather on mobile